createdAt,value
2022-09-13T00:00:11.937Z,13.11
2022-09-13T00:01:11.991Z,13.08
2022-09-13T00:02:12.000Z,13.09
2022-09-13T00:03:11.844Z,13.19
2022-09-13T00:04:11.812Z,13.19
2022-09-13T00:05:11.768Z,13.25
2022-09-13T00:06:11.755Z,13.16
2022-09-13T00:07:11.829Z,13.23
2022-09-13T00:08:11.732Z,13.22
2022-09-13T00:09:11.647Z,13.22
2022-09-13T00:10:11.611Z,13.19
2022-09-13T00:11:11.584Z,13.20
2022-09-13T00:12:11.553Z,13.22
2022-09-13T00:13:11.577Z,13.22
2022-09-13T00:14:11.506Z,13.16
2022-09-13T00:15:11.461Z,13.19
2022-09-13T00:16:11.487Z,13.15
2022-09-13T00:17:11.402Z,13.11
2022-09-13T00:18:11.562Z,13.20
2022-09-13T00:19:11.321Z,13.25
2022-09-13T00:20:11.290Z,13.23
2022-09-13T00:21:11.274Z,13.19
2022-09-13T00:22:11.294Z,13.23
2022-09-13T00:23:11.204Z,13.22
2022-09-13T00:24:11.229Z,13.27
2022-09-13T00:25:11.131Z,13.25
2022-09-13T00:26:11.098Z,13.20
2022-09-13T00:27:11.078Z,13.27
2022-09-13T00:28:11.041Z,13.33
2022-09-13T00:29:11.067Z,13.12
2022-09-13T00:30:10.972Z,13.09
2022-09-13T00:31:10.957Z,13.09
2022-09-13T00:32:10.909Z,13.27
2022-09-13T00:33:10.903Z,13.25
2022-09-13T00:34:10.917Z,13.19
2022-09-13T00:35:10.885Z,13.20
2022-09-13T00:36:10.794Z,13.09
2022-09-13T00:37:10.763Z,13.09
2022-09-13T00:38:10.778Z,13.03
2022-09-13T00:39:10.685Z,13.04
2022-09-13T00:40:10.737Z,13.05
2022-09-13T00:41:10.628Z,13.04
2022-09-13T00:42:10.597Z,13.01
2022-09-13T00:43:10.563Z,12.98
2022-09-13T00:44:10.592Z,12.98
2022-09-13T00:45:10.573Z,12.98
2022-09-13T00:46:10.547Z,12.98
2022-09-13T00:47:10.445Z,13.04
2022-09-13T00:48:10.402Z,13.12
2022-09-13T00:49:10.433Z,13.09
2022-09-13T00:50:10.416Z,13.08
2022-09-13T00:51:10.304Z,13.01
2022-09-13T00:52:10.356Z,13.03
2022-09-13T00:53:10.314Z,13.03
2022-09-13T00:54:10.717Z,13.05
2022-09-13T00:55:10.176Z,13.09
2022-09-13T00:56:10.206Z,13.05
2022-09-13T00:57:10.112Z,13.11
2022-09-13T00:58:10.083Z,13.12
2022-09-13T00:59:10.049Z,13.12
2022-09-13T01:00:10.030Z,13.19
2022-09-13T01:01:10.120Z,13.19
2022-09-13T01:02:10.092Z,13.23
2022-09-13T01:03:09.925Z,13.12
2022-09-13T01:04:12.685Z,13.18
2022-09-13T01:05:09.857Z,13.11
2022-09-13T01:06:09.827Z,13.11
2022-09-13T01:07:09.871Z,13.13
2022-09-13T01:08:09.770Z,13.15
2022-09-13T01:09:09.750Z,13.15
2022-09-13T01:10:09.700Z,13.16
2022-09-13T01:11:09.719Z,13.22
2022-09-13T01:12:09.703Z,13.22
2022-09-13T01:13:09.608Z,13.20
2022-09-13T01:14:09.582Z,13.15
2022-09-13T01:15:09.550Z,13.12
2022-09-13T01:16:09.532Z,13.11
2022-09-13T01:17:09.569Z,13.11
2022-09-13T01:18:09.446Z,13.15
2022-09-13T01:19:09.443Z,13.04
2022-09-13T01:20:09.421Z,13.08
2022-09-13T01:21:09.359Z,13.11
2022-09-13T01:22:09.324Z,13.04
2022-09-13T01:23:09.391Z,13.01
2022-09-13T01:24:09.263Z,13.08
2022-09-13T01:25:09.245Z,13.08
2022-09-13T01:26:09.202Z,13.03
2022-09-13T01:27:09.247Z,13.01
2022-09-13T01:28:09.153Z,13.03
2022-09-13T01:29:09.169Z,12.97
2022-09-13T01:30:09.081Z,12.95
2022-09-13T01:31:09.050Z,12.90
2022-09-13T01:32:09.036Z,12.94
2022-09-13T01:33:08.970Z,12.95
2022-09-13T01:34:09.009Z,13.01
2022-09-13T01:35:09.023Z,12.94
2022-09-13T01:36:08.890Z,12.93
2022-09-13T01:37:08.868Z,12.90
2022-09-13T01:38:08.848Z,12.90
2022-09-13T01:39:08.775Z,12.85
2022-09-13T01:40:08.817Z,12.82
2022-09-13T01:41:08.789Z,12.87
2022-09-13T01:42:08.700Z,12.90
2022-09-13T01:43:08.663Z,12.82
2022-09-13T01:44:08.635Z,12.79
2022-09-13T01:45:08.618Z,12.73
2022-09-13T01:46:08.670Z,12.70
2022-09-13T01:47:08.771Z,12.65
2022-09-13T01:48:08.497Z,12.70
2022-09-13T01:49:08.468Z,12.64
2022-09-13T01:50:08.427Z,12.68
2022-09-13T01:51:08.398Z,12.62
2022-09-13T01:52:08.380Z,12.64
2022-09-13T01:53:08.447Z,12.55
2022-09-13T01:54:08.306Z,12.60
2022-09-13T01:55:08.271Z,12.54
2022-09-13T01:56:08.235Z,12.62
2022-09-13T01:57:08.214Z,12.68
2022-09-13T01:58:08.270Z,12.64
2022-09-13T01:59:08.151Z,12.68
2022-09-13T02:00:08.117Z,12.67
2022-09-13T02:01:08.246Z,12.75
2022-09-13T02:02:08.149Z,12.73
2022-09-13T02:03:08.039Z,12.72
2022-09-13T02:04:08.036Z,12.72
2022-09-13T02:05:07.963Z,12.70
2022-09-13T02:06:07.942Z,12.70
2022-09-13T02:07:07.885Z,12.67
2022-09-13T02:08:07.849Z,12.68
2022-09-13T02:09:07.881Z,12.68
2022-09-13T02:10:07.858Z,12.72
2022-09-13T02:11:07.818Z,12.68
2022-09-13T02:12:07.746Z,12.68
2022-09-13T02:13:07.694Z,12.70
2022-09-13T02:14:07.662Z,12.70
2022-09-13T02:15:07.723Z,12.73
2022-09-13T02:16:07.657Z,12.79
2022-09-13T02:17:07.572Z,12.72
2022-09-13T02:18:07.533Z,12.75
2022-09-13T02:19:07.513Z,12.79
2022-09-13T02:20:07.480Z,12.67
2022-09-13T02:21:08.753Z,12.67
2022-09-13T02:22:07.405Z,12.68
2022-09-13T02:23:07.370Z,12.72
2022-09-13T02:24:07.352Z,12.70
2022-09-13T02:25:07.371Z,12.72
2022-09-13T02:26:07.342Z,12.68
2022-09-13T02:27:07.309Z,12.60
2022-09-13T02:28:07.237Z,12.67
2022-09-13T02:29:07.195Z,12.65
2022-09-13T02:30:07.167Z,12.55
2022-09-13T02:31:07.202Z,12.64
2022-09-13T02:32:07.154Z,12.67
2022-09-13T02:33:07.063Z,12.70
2022-09-13T02:34:07.023Z,12.68
2022-09-13T02:35:06.988Z,12.67
2022-09-13T02:36:06.955Z,12.68
2022-09-13T02:37:06.982Z,12.73
2022-09-13T02:38:06.912Z,12.72
2022-09-13T02:39:06.884Z,12.68
2022-09-13T02:40:06.905Z,12.68
2022-09-13T02:41:06.796Z,12.67
2022-09-13T02:42:09.309Z,12.70
2022-09-13T02:43:06.742Z,12.67
2022-09-13T02:44:06.707Z,12.70
2022-09-13T02:45:06.675Z,12.67
2022-09-13T02:46:06.700Z,12.70
2022-09-13T02:47:06.621Z,12.72
2022-09-13T02:48:07.149Z,12.72
2022-09-13T02:49:06.546Z,12.67
2022-09-13T02:50:06.504Z,12.68
2022-09-13T02:51:06.508Z,12.64
2022-09-13T02:52:06.457Z,12.72
2022-09-13T02:53:06.649Z,12.60
2022-09-13T02:54:06.378Z,12.67
2022-09-13T02:55:06.362Z,12.70
2022-09-13T02:56:06.339Z,12.65
2022-09-13T02:57:06.340Z,12.68
2022-09-13T02:58:06.265Z,12.64
2022-09-13T02:59:06.318Z,12.65
2022-09-13T03:00:06.185Z,12.58
2022-09-13T03:01:06.216Z,12.57
2022-09-13T03:02:06.187Z,12.64
2022-09-13T03:03:06.117Z,12.60
2022-09-13T03:04:06.074Z,12.60
2022-09-13T03:05:06.104Z,12.53
2022-09-13T03:06:06.000Z,12.54
2022-09-13T03:07:06.049Z,12.60
2022-09-13T03:08:05.943Z,12.55
2022-09-13T03:09:05.909Z,12.57
2022-09-13T03:10:05.872Z,12.50
2022-09-13T03:11:05.901Z,12.47
2022-09-13T03:12:05.807Z,12.46
2022-09-13T03:13:05.789Z,12.49
2022-09-13T03:14:05.743Z,12.46
2022-09-13T03:15:05.780Z,12.46
2022-09-13T03:16:05.779Z,12.58
2022-09-13T03:17:05.656Z,12.49
2022-09-13T03:18:05.647Z,12.65
2022-09-13T03:19:05.583Z,12.61
2022-09-13T03:20:05.622Z,12.49
2022-09-13T03:21:05.543Z,12.53
2022-09-13T03:22:05.529Z,12.55
2022-09-13T03:23:05.466Z,12.55
2022-09-13T03:24:05.420Z,12.54
2022-09-13T03:25:05.441Z,12.49
2022-09-13T03:26:05.370Z,12.64
2022-09-13T03:27:05.331Z,12.65
2022-09-13T03:28:06.259Z,12.53
2022-09-13T03:29:05.260Z,12.60
2022-09-13T03:30:05.332Z,12.64
2022-09-13T03:31:05.203Z,12.53
2022-09-13T03:32:05.272Z,12.47
2022-09-13T03:33:05.160Z,12.49
2022-09-13T03:34:05.099Z,12.46
2022-09-13T03:35:05.074Z,12.49
2022-09-13T03:36:05.092Z,12.53
2022-09-13T03:37:05.019Z,12.49
2022-09-13T03:38:04.970Z,12.47
2022-09-13T03:39:04.945Z,12.49
2022-09-13T03:40:04.973Z,12.47
2022-09-13T03:41:04.931Z,12.50
2022-09-13T03:42:04.913Z,12.49
2022-09-13T03:43:04.866Z,12.49
2022-09-13T03:44:04.791Z,12.47
2022-09-13T03:45:04.791Z,12.47
2022-09-13T03:46:04.758Z,12.47
2022-09-13T03:47:04.741Z,12.45
2022-09-13T03:48:04.653Z,12.46
2022-09-13T03:49:04.629Z,12.46
2022-09-13T03:50:04.597Z,12.55
2022-09-13T03:51:04.557Z,12.43
2022-09-13T03:52:04.592Z,12.45
2022-09-13T03:53:04.552Z,12.53
2022-09-13T03:54:04.461Z,12.47
2022-09-13T03:55:04.432Z,12.60
2022-09-13T03:56:04.412Z,12.46
2022-09-13T03:57:04.367Z,12.57
2022-09-13T03:58:04.432Z,12.53
2022-09-13T03:59:04.339Z,12.64
2022-09-13T04:00:04.277Z,12.65
2022-09-13T04:01:04.263Z,12.73
2022-09-13T04:02:04.256Z,12.70
2022-09-13T04:03:04.279Z,12.70
2022-09-13T04:04:04.137Z,12.68
2022-09-13T04:05:04.117Z,12.72
2022-09-13T04:06:04.081Z,12.79
2022-09-13T04:07:04.058Z,12.78
2022-09-13T04:08:04.021Z,12.82
2022-09-13T04:09:04.067Z,12.78
2022-09-13T04:10:03.950Z,12.80
2022-09-13T04:11:03.926Z,12.87
2022-09-13T04:12:03.986Z,12.85
2022-09-13T04:13:03.856Z,12.90
2022-09-13T04:14:03.829Z,12.93
2022-09-13T04:15:03.880Z,12.87
2022-09-13T04:16:03.835Z,12.98
2022-09-13T04:17:03.745Z,12.97
2022-09-13T04:18:03.694Z,12.97
2022-09-13T04:19:03.665Z,12.95
2022-09-13T04:20:03.712Z,13.00
2022-09-13T04:21:03.664Z,13.01
2022-09-13T04:22:03.645Z,13.01
2022-09-13T04:23:03.549Z,13.03
2022-09-13T04:24:03.502Z,12.98
2022-09-13T04:25:03.491Z,13.09
2022-09-13T04:26:03.503Z,13.11
2022-09-13T04:27:03.482Z,13.20
2022-09-13T04:28:03.385Z,13.19
2022-09-13T04:29:03.356Z,13.19
2022-09-13T04:30:03.324Z,13.13
2022-09-13T04:31:03.298Z,13.31
2022-09-13T04:32:03.307Z,13.25
2022-09-13T04:33:03.253Z,13.27
2022-09-13T04:34:03.262Z,13.28
2022-09-13T04:35:03.176Z,13.46
2022-09-13T04:36:03.140Z,13.54
2022-09-13T04:37:03.238Z,13.50
2022-09-13T04:38:03.080Z,13.52
2022-09-13T04:39:03.043Z,13.53
2022-09-13T04:40:03.066Z,13.56
2022-09-13T04:41:02.977Z,13.57
2022-09-13T04:42:03.013Z,13.60
2022-09-13T04:43:02.988Z,13.63
2022-09-13T04:44:02.879Z,13.68
2022-09-13T04:45:02.867Z,13.71
2022-09-13T04:46:02.856Z,13.70
2022-09-13T04:47:02.786Z,13.63
2022-09-13T04:48:02.770Z,13.60
2022-09-13T04:49:02.772Z,13.62
2022-09-13T04:50:02.678Z,13.71
2022-09-13T04:51:02.676Z,13.70
2022-09-13T04:52:02.636Z,13.72
2022-09-13T04:53:02.591Z,13.77
2022-09-13T04:54:02.881Z,13.77
2022-09-13T04:55:03.170Z,13.74
2022-09-13T04:56:02.524Z,13.87
2022-09-13T04:57:02.474Z,13.87
2022-09-13T04:58:02.435Z,13.83
2022-09-13T04:59:02.431Z,13.83
2022-09-13T05:00:02.690Z,13.92
2022-09-13T05:01:02.475Z,13.79
2022-09-13T05:02:02.359Z,13.92
2022-09-13T05:03:02.276Z,13.95
2022-09-13T05:04:02.272Z,13.95
2022-09-13T05:05:02.224Z,14.07
2022-09-13T05:06:02.263Z,14.10
2022-09-13T05:07:02.180Z,14.04
2022-09-13T05:08:02.125Z,14.08
2022-09-13T05:09:02.165Z,14.08
2022-09-13T05:10:02.122Z,14.08
2022-09-13T05:11:02.035Z,14.17
2022-09-13T05:12:02.088Z,14.20
2022-09-13T05:13:02.019Z,14.29
2022-09-13T05:14:01.951Z,14.28
2022-09-13T05:15:01.897Z,14.12
2022-09-13T05:16:01.907Z,14.30
2022-09-13T05:17:01.843Z,14.32
2022-09-13T05:18:01.876Z,14.22
2022-09-13T05:19:01.782Z,14.30
2022-09-13T05:20:01.754Z,14.36
2022-09-13T05:21:01.739Z,14.41
2022-09-13T05:22:01.697Z,14.35
2022-09-13T05:23:01.715Z,14.35
2022-09-13T05:24:01.687Z,14.35
2022-09-13T05:25:01.598Z,14.33
2022-09-13T05:26:01.572Z,14.35
2022-09-13T05:27:01.531Z,14.30
2022-09-13T05:28:01.506Z,14.30
2022-09-13T05:29:01.531Z,14.37
2022-09-13T05:30:01.449Z,14.33
2022-09-13T05:31:01.426Z,14.30
2022-09-13T05:32:01.379Z,14.29
2022-09-13T05:33:01.345Z,14.33
2022-09-13T05:34:01.594Z,14.29
2022-09-13T05:35:01.297Z,14.36
2022-09-13T05:36:01.258Z,14.40
2022-09-13T05:37:01.226Z,14.37
2022-09-13T05:38:01.189Z,14.40
2022-09-13T05:39:28.594Z,14.41
2022-09-13T05:40:11.228Z,14.47
2022-09-13T05:41:01.102Z,14.48
2022-09-13T05:42:01.072Z,14.45
2022-09-13T05:43:01.038Z,14.50
2022-09-13T05:44:10.364Z,14.54
2022-09-13T05:45:01.021Z,14.54
2022-09-13T05:46:01.059Z,14.58
2022-09-13T05:47:00.929Z,14.65
2022-09-13T05:48:00.886Z,14.58
2022-09-13T05:49:00.857Z,14.65
2022-09-13T05:50:27.510Z,14.68
2022-09-13T05:51:00.791Z,14.62
2022-09-13T05:52:00.756Z,14.68
2022-09-13T05:53:00.735Z,14.72
2022-09-13T05:54:00.698Z,14.79
2022-09-13T05:55:00.671Z,14.70
2022-09-13T05:56:00.707Z,14.77
2022-09-13T05:57:00.622Z,14.77
2022-09-13T05:58:00.573Z,14.66
2022-09-13T05:59:00.546Z,14.82
2022-09-13T06:00:00.510Z,14.77
2022-09-13T06:01:00.563Z,14.81
2022-09-13T06:02:00.566Z,14.79
2022-09-13T06:03:00.470Z,14.78
2022-09-13T06:04:00.394Z,14.92
2022-09-13T06:05:00.359Z,14.78
2022-09-13T06:06:00.323Z,14.86
2022-09-13T06:07:00.381Z,14.82
2022-09-13T06:08:00.271Z,14.86
2022-09-13T06:09:00.296Z,14.85
2022-09-13T06:10:00.205Z,14.79
2022-09-13T06:11:00.177Z,14.82
2022-09-13T06:12:00.171Z,14.84
2022-09-13T06:13:00.245Z,14.85
2022-09-13T06:14:00.100Z,14.86
2022-09-13T06:15:00.062Z,14.88
2022-09-13T06:16:00.165Z,14.94
2022-09-13T06:16:59.987Z,14.84
2022-09-13T06:17:59.969Z,14.85
2022-09-13T06:18:59.954Z,14.89
2022-09-13T06:19:59.903Z,14.86
2022-09-13T06:20:59.870Z,14.96
2022-09-13T06:21:59.945Z,14.96
2022-09-13T06:22:59.808Z,14.99
2022-09-13T06:23:59.864Z,15.06
2022-09-13T06:24:59.827Z,15.03
2022-09-13T06:25:59.710Z,15.03
2022-09-13T06:26:59.687Z,15.15
2022-09-13T06:27:59.656Z,15.11
2022-09-13T06:28:59.621Z,15.17
2022-09-13T06:29:59.647Z,15.18
2022-09-13T06:30:59.607Z,15.15
2022-09-13T06:31:59.540Z,15.25
2022-09-13T06:32:59.519Z,15.19
2022-09-13T06:33:59.485Z,15.21
2022-09-13T06:34:59.537Z,15.22
2022-09-13T06:35:59.408Z,15.21
2022-09-13T06:36:59.374Z,15.35
2022-09-13T06:37:59.355Z,15.35
2022-09-13T06:38:59.318Z,15.46
2022-09-13T06:39:59.420Z,15.55
2022-09-13T06:40:59.369Z,15.62
2022-09-13T06:41:59.226Z,15.65
2022-09-13T06:42:59.198Z,15.73
2022-09-13T06:43:59.163Z,15.77
2022-09-13T06:44:59.138Z,15.79
2022-09-13T06:45:59.213Z,15.97
2022-09-13T06:46:59.136Z,16.02
2022-09-13T06:47:59.058Z,16.01
2022-09-13T06:48:59.015Z,16.15
2022-09-13T06:49:58.985Z,16.16
2022-09-13T06:51:00.876Z,16.23
2022-09-13T06:51:58.924Z,16.28
2022-09-13T06:52:58.894Z,16.29
2022-09-13T06:53:58.867Z,16.24
2022-09-13T06:54:58.842Z,16.32
2022-09-13T06:55:59.473Z,16.31
2022-09-13T06:56:58.774Z,16.41
2022-09-13T06:57:58.739Z,16.42
2022-09-13T06:58:58.719Z,16.46
2022-09-13T06:59:58.690Z,16.58
2022-09-13T07:00:58.680Z,16.54
2022-09-13T07:01:58.795Z,16.61
2022-09-13T07:02:58.596Z,16.66
2022-09-13T07:03:58.565Z,16.68
2022-09-13T07:04:58.537Z,16.64
2022-09-13T07:05:58.530Z,16.76
2022-09-13T07:06:58.543Z,16.74
2022-09-13T07:07:58.448Z,16.84
2022-09-13T07:08:58.412Z,16.75
2022-09-13T07:09:58.404Z,16.86
2022-09-13T07:10:58.358Z,16.91
2022-09-13T07:11:58.339Z,17.05
2022-09-13T07:12:58.449Z,17.14
2022-09-13T07:13:58.273Z,17.14
2022-09-13T07:14:58.244Z,17.15
2022-09-13T07:15:58.247Z,17.23
2022-09-13T07:16:58.188Z,17.30
2022-09-13T07:17:58.166Z,17.38
2022-09-13T07:18:58.211Z,17.46
2022-09-13T07:19:58.103Z,17.52
2022-09-13T07:20:58.076Z,17.57
2022-09-13T07:21:58.062Z,17.67
2022-09-13T07:22:58.014Z,17.72
2022-09-13T07:23:57.980Z,17.76
2022-09-13T07:24:57.996Z,17.79
2022-09-13T07:25:57.923Z,17.85
2022-09-13T07:26:57.896Z,17.95
2022-09-13T07:27:57.866Z,17.95
2022-09-13T07:28:57.926Z,18.01
2022-09-13T07:29:57.945Z,18.05
2022-09-13T07:30:57.820Z,18.04
2022-09-13T07:31:57.753Z,18.05
2022-09-13T07:32:57.734Z,18.03
2022-09-13T07:33:57.708Z,18.05
2022-09-13T07:34:57.668Z,18.13
2022-09-13T07:35:57.781Z,18.03
2022-09-13T07:36:57.612Z,18.05
2022-09-13T07:37:57.583Z,18.10
2022-09-13T07:38:57.565Z,18.07
2022-09-13T07:39:57.564Z,18.13
2022-09-13T07:40:57.502Z,18.19
2022-09-13T07:41:57.525Z,18.26
2022-09-13T07:42:57.444Z,18.34
2022-09-13T07:43:57.419Z,18.33
2022-09-13T07:44:57.389Z,18.43
2022-09-13T07:45:57.389Z,18.40
2022-09-13T07:46:57.391Z,18.45
2022-09-13T07:47:57.307Z,18.45
2022-09-13T07:48:57.279Z,18.44
2022-09-13T07:49:57.253Z,18.44
2022-09-13T07:50:57.226Z,18.49
2022-09-13T07:51:57.297Z,18.58
2022-09-13T07:52:57.167Z,18.59
2022-09-13T07:53:57.816Z,18.65
2022-09-13T07:54:57.128Z,18.58
2022-09-13T07:55:57.095Z,18.52
2022-09-13T07:56:57.057Z,18.47
2022-09-13T07:57:57.297Z,18.45
2022-09-13T07:58:57.048Z,18.43
2022-09-13T07:59:56.976Z,18.34
2022-09-13T08:00:56.942Z,18.40
2022-09-13T08:01:57.197Z,18.37
2022-09-13T08:02:57.198Z,18.40
2022-09-13T08:03:56.859Z,18.44
2022-09-13T08:04:56.833Z,18.49
2022-09-13T08:05:56.812Z,18.52
2022-09-13T08:06:56.786Z,18.53
2022-09-13T08:07:56.752Z,18.55
2022-09-13T08:08:56.791Z,18.53
2022-09-13T08:09:56.709Z,18.68
2022-09-13T08:10:56.718Z,18.66
2022-09-13T08:11:56.649Z,18.83
2022-09-13T08:12:56.635Z,18.81
2022-09-13T08:13:56.639Z,18.74
2022-09-13T08:15:05.850Z,18.93
2022-09-13T08:15:56.593Z,18.88
2022-09-13T08:16:56.506Z,18.84
2022-09-13T08:17:56.483Z,18.92
2022-09-13T08:18:56.504Z,18.88
2022-09-13T08:19:56.418Z,18.88
2022-09-13T08:20:56.393Z,18.96
2022-09-13T08:21:56.372Z,18.96
2022-09-13T08:22:56.338Z,19.08
2022-09-13T08:23:56.316Z,19.12
2022-09-13T08:24:56.338Z,19.18
2022-09-13T08:25:56.327Z,19.36
2022-09-13T08:26:56.232Z,19.41
2022-09-13T08:27:56.262Z,19.44
2022-09-13T08:28:56.238Z,19.58
2022-09-13T08:29:56.148Z,19.67
2022-09-13T08:30:56.281Z,19.71
2022-09-13T08:31:56.094Z,19.70
2022-09-13T08:32:56.223Z,19.84
2022-09-13T08:33:56.161Z,19.85
2022-09-13T08:34:56.016Z,19.95
2022-09-13T08:35:55.995Z,20.09
2022-09-13T08:36:55.966Z,20.22
2022-09-13T08:37:55.930Z,20.26
2022-09-13T08:38:55.953Z,20.37
2022-09-13T08:39:56.007Z,20.36
2022-09-13T08:40:55.859Z,20.40
2022-09-13T08:41:55.828Z,20.39
2022-09-13T08:42:55.845Z,20.37
2022-09-13T08:43:55.772Z,20.40
2022-09-13T08:44:55.816Z,20.26
2022-09-13T08:45:55.769Z,20.29
2022-09-13T08:46:55.697Z,20.25
2022-09-13T08:47:55.677Z,20.44
2022-09-13T08:48:55.676Z,20.50
2022-09-13T08:49:55.917Z,20.63
2022-09-13T08:50:55.596Z,20.67
2022-09-13T08:51:55.577Z,20.74
2022-09-13T08:52:55.554Z,20.87
2022-09-13T08:53:55.524Z,20.75
2022-09-13T08:54:58.273Z,20.75
2022-09-13T08:55:55.521Z,20.82
2022-09-13T08:56:55.444Z,20.93
2022-09-13T08:57:55.409Z,20.92
2022-09-13T08:58:55.396Z,21.02
2022-09-13T08:59:55.369Z,21.12
2022-09-13T09:00:55.422Z,21.17
2022-09-13T09:01:55.405Z,21.17
2022-09-13T09:02:55.317Z,21.17
2022-09-13T09:03:55.257Z,21.22
2022-09-13T09:04:55.235Z,21.17
2022-09-13T09:05:55.210Z,21.14
2022-09-13T09:06:57.985Z,21.18
2022-09-13T09:07:55.157Z,21.22
2022-09-13T09:08:55.134Z,21.37
2022-09-13T09:09:55.106Z,21.46
2022-09-13T09:10:55.214Z,21.48
2022-09-13T09:11:55.052Z,21.42
2022-09-13T09:12:55.098Z,21.37
2022-09-13T09:13:55.009Z,21.46
2022-09-13T09:14:54.979Z,21.39
2022-09-13T09:15:55.007Z,21.50
2022-09-13T09:16:55.035Z,21.54
2022-09-13T09:17:54.905Z,21.61
2022-09-13T09:18:54.880Z,21.52
2022-09-13T09:19:54.855Z,21.54
2022-09-13T09:20:54.894Z,21.60
2022-09-13T09:21:54.808Z,21.55
2022-09-13T09:22:54.827Z,21.48
2022-09-13T09:23:54.755Z,21.42
2022-09-13T09:24:54.725Z,21.45
2022-09-13T09:25:57.269Z,21.61
2022-09-13T09:26:54.675Z,21.66
2022-09-13T09:27:54.708Z,21.85
2022-09-13T09:28:54.629Z,21.92
2022-09-13T09:29:54.600Z,21.96
2022-09-13T09:30:54.626Z,22.00
2022-09-13T09:31:54.551Z,22.11
2022-09-13T09:32:54.891Z,22.14
2022-09-13T09:33:54.500Z,22.29
2022-09-13T09:34:54.478Z,22.41
2022-09-13T09:35:54.498Z,22.50
2022-09-13T09:36:54.488Z,22.75
2022-09-13T09:37:54.397Z,22.75
2022-09-13T09:38:54.548Z,22.66
2022-09-13T09:39:54.412Z,22.68
2022-09-13T09:40:54.324Z,22.80
2022-09-13T09:41:54.303Z,22.84
2022-09-13T09:42:54.310Z,22.84
2022-09-13T09:43:54.260Z,22.70
2022-09-13T09:44:54.347Z,22.66
2022-09-13T09:45:54.798Z,22.69
2022-09-13T09:46:54.181Z,22.72
2022-09-13T09:47:54.154Z,22.80
2022-09-13T09:48:54.138Z,22.84
2022-09-13T09:49:54.204Z,22.81
2022-09-13T09:50:54.106Z,22.99
2022-09-13T09:51:54.068Z,23.00
2022-09-13T09:52:54.101Z,23.03
2022-09-13T09:53:54.012Z,23.13
2022-09-13T09:54:54.473Z,23.23
2022-09-13T09:55:53.974Z,23.43
2022-09-13T09:56:54.887Z,23.56
2022-09-13T09:57:53.925Z,23.62
2022-09-13T09:58:53.901Z,23.43
2022-09-13T09:59:53.934Z,23.37
2022-09-13T10:00:53.915Z,23.48
2022-09-13T10:01:53.855Z,23.50
2022-09-13T10:02:53.825Z,23.61
2022-09-13T10:03:53.791Z,23.74
2022-09-13T10:04:53.762Z,23.98
2022-09-13T10:05:53.964Z,23.87
2022-09-13T10:06:53.704Z,24.05
2022-09-13T10:07:53.684Z,24.08
2022-09-13T10:08:54.286Z,24.14
2022-09-13T10:09:53.674Z,24.18
2022-09-13T10:10:54.089Z,24.24
2022-09-13T10:11:53.585Z,24.13
2022-09-13T10:12:53.559Z,24.29
2022-09-13T10:13:53.563Z,24.38
2022-09-13T10:14:53.521Z,24.53
2022-09-13T10:15:53.489Z,24.48
2022-09-13T10:16:53.658Z,24.45
2022-09-13T10:17:53.440Z,24.23
2022-09-13T10:18:53.458Z,24.10
2022-09-13T10:19:53.407Z,23.96
2022-09-13T10:20:53.396Z,23.84
2022-09-13T10:21:53.376Z,23.63
2022-09-13T10:22:53.984Z,23.56
2022-09-13T10:23:53.334Z,23.63
2022-09-13T10:24:53.298Z,23.73
2022-09-13T10:25:53.302Z,23.73
2022-09-13T10:26:53.273Z,23.73
2022-09-13T10:27:53.309Z,23.77
2022-09-13T10:28:53.909Z,23.96
2022-09-13T10:29:53.189Z,24.06
2022-09-13T10:30:53.232Z,24.20
2022-09-13T10:31:53.115Z,24.45
2022-09-13T10:32:53.097Z,24.21
2022-09-13T10:33:53.198Z,24.03
2022-09-13T10:34:53.049Z,23.83
2022-09-13T10:35:53.029Z,23.59
2022-09-13T10:36:53.667Z,23.36
2022-09-13T10:37:52.975Z,23.34
2022-09-13T10:38:53.008Z,23.12
2022-09-13T10:39:53.048Z,23.12
2022-09-13T10:40:52.902Z,23.10
2022-09-13T10:41:52.883Z,23.00
2022-09-13T10:42:52.858Z,22.83
2022-09-13T10:43:52.839Z,22.70
2022-09-13T10:44:52.942Z,22.53
2022-09-13T10:45:52.838Z,22.35
2022-09-13T10:46:52.764Z,22.25
2022-09-13T10:47:52.750Z,22.07
2022-09-13T10:48:52.716Z,22.00
2022-09-13T10:49:52.697Z,21.89
2022-09-13T10:50:52.766Z,21.77
2022-09-13T10:51:52.683Z,21.70
2022-09-13T10:52:52.619Z,21.55
2022-09-13T10:53:52.599Z,21.55
2022-09-13T10:54:52.567Z,21.52
2022-09-13T10:55:52.548Z,21.43
2022-09-13T10:56:52.573Z,21.37
2022-09-13T10:57:52.498Z,21.35
2022-09-13T10:58:52.468Z,21.33
2022-09-13T10:59:52.528Z,21.30
2022-09-13T11:00:52.463Z,21.18
2022-09-13T11:01:52.490Z,21.12
2022-09-13T11:02:52.373Z,21.02
2022-09-13T11:03:52.406Z,20.93
2022-09-13T11:04:52.322Z,20.90
2022-09-13T11:05:52.301Z,20.88
2022-09-13T11:06:52.268Z,20.69
2022-09-13T11:07:52.314Z,20.65
2022-09-13T11:08:52.222Z,20.55
2022-09-13T11:09:52.206Z,20.51
2022-09-13T11:10:52.168Z,20.50
2022-09-13T11:11:52.139Z,20.44
2022-09-13T11:12:52.110Z,20.34
2022-09-13T11:13:52.148Z,20.22
2022-09-13T11:14:52.073Z,20.19
2022-09-13T11:15:52.050Z,20.14
2022-09-13T11:16:52.078Z,20.24
2022-09-13T11:17:51.988Z,20.13
2022-09-13T11:18:52.812Z,20.24
2022-09-13T11:19:56.348Z,20.22
2022-09-13T11:20:51.906Z,20.22
2022-09-13T11:21:51.883Z,20.14
2022-09-13T11:22:51.855Z,20.06
2022-09-13T11:23:51.926Z,20.06
2022-09-13T11:24:51.810Z,19.92
2022-09-13T11:25:51.778Z,19.92
2022-09-13T11:26:51.747Z,19.79
2022-09-13T11:27:51.727Z,19.76
2022-09-13T11:28:51.750Z,19.81
2022-09-13T11:29:51.722Z,19.81
2022-09-13T11:30:51.645Z,19.85
2022-09-13T11:31:51.657Z,19.84
2022-09-13T11:32:51.594Z,19.85
2022-09-13T11:33:51.563Z,19.89
2022-09-13T11:34:51.587Z,19.89
2022-09-13T11:35:51.506Z,19.86
2022-09-13T11:36:51.501Z,19.94
2022-09-13T11:37:51.455Z,19.89
2022-09-13T11:38:51.445Z,19.99
2022-09-13T11:39:51.889Z,19.94
2022-09-13T11:40:51.425Z,19.85
2022-09-13T11:41:51.352Z,19.84
2022-09-13T11:42:51.413Z,19.85
2022-09-13T11:43:51.292Z,19.84
2022-09-13T11:44:51.282Z,19.85
2022-09-13T11:45:51.488Z,19.92
2022-09-13T11:46:51.213Z,19.86
2022-09-13T11:47:51.186Z,19.94
2022-09-13T11:48:51.162Z,19.95
2022-09-13T11:49:51.133Z,19.99
2022-09-13T11:50:51.103Z,20.16
2022-09-13T11:51:51.184Z,20.02
2022-09-13T11:52:51.372Z,20.13
2022-09-13T11:53:51.025Z,20.19
2022-09-13T11:54:50.997Z,20.18
2022-09-13T11:55:50.967Z,20.28
2022-09-13T11:56:50.944Z,20.37
2022-09-13T11:57:50.917Z,20.50
2022-09-13T11:58:50.965Z,20.66
2022-09-13T11:59:50.870Z,20.75
2022-09-13T12:00:50.843Z,20.88
2022-09-13T12:01:50.895Z,20.92
2022-09-13T12:02:50.934Z,20.96
2022-09-13T12:03:50.761Z,20.96
2022-09-13T12:05:11.042Z,20.97
2022-09-13T12:05:50.709Z,20.97
2022-09-13T12:06:50.679Z,20.99
2022-09-13T12:07:50.650Z,20.81
2022-09-13T12:08:50.629Z,20.84
2022-09-13T12:09:50.668Z,20.80
2022-09-13T12:10:50.577Z,20.87
2022-09-13T12:11:50.595Z,21.02
2022-09-13T12:12:50.516Z,21.18
2022-09-13T12:13:50.497Z,21.05
2022-09-13T12:14:50.517Z,21.14
2022-09-13T12:15:50.466Z,21.06
2022-09-13T12:16:50.469Z,21.21
2022-09-13T12:17:50.392Z,21.27
2022-09-13T12:18:50.364Z,21.36
2022-09-13T12:19:50.499Z,21.37
2022-09-13T12:20:50.309Z,21.39
2022-09-13T12:21:50.284Z,21.48
2022-09-13T12:22:50.262Z,21.52
2022-09-13T12:23:50.283Z,21.64
2022-09-13T12:24:50.202Z,21.91
2022-09-13T12:25:50.232Z,22.18
2022-09-13T12:26:50.160Z,22.29
2022-09-13T12:27:50.131Z,22.32
2022-09-13T12:28:50.111Z,22.33
2022-09-13T12:29:50.081Z,22.36
2022-09-13T12:30:52.050Z,22.41
2022-09-13T12:31:50.081Z,22.41
2022-09-13T12:32:50.025Z,22.28
2022-09-13T12:33:50.135Z,22.32
2022-09-13T12:34:49.949Z,22.30
2022-09-13T12:35:49.928Z,22.17
2022-09-13T12:36:49.970Z,22.02
2022-09-13T12:37:49.879Z,22.04
2022-09-13T12:38:49.854Z,21.82
2022-09-13T12:39:49.860Z,21.89
2022-09-13T12:40:50.079Z,21.75
2022-09-13T12:41:49.779Z,21.67
2022-09-13T12:42:49.751Z,21.58
2022-09-13T12:43:49.831Z,21.64
2022-09-13T12:44:49.716Z,21.76
2022-09-13T12:45:49.732Z,21.77
2022-09-13T12:46:49.703Z,21.76
2022-09-13T12:47:49.639Z,21.76
2022-09-13T12:48:49.876Z,21.76
2022-09-13T12:49:49.574Z,21.75
2022-09-13T12:50:49.554Z,21.77
2022-09-13T12:51:50.019Z,21.92